sensor_id;sensor_type;location;lat;lon;timestamp;P1;durP1;ratioP1;P2;durP2;ratioP2
41661;SDS011;27351;45.992;12.666;2024-02-21T00:02:06;4.73;;;2.40;;
41661;SDS011;27351;45.992;12.666;2024-02-21T00:04:32;5.75;;;2.78;;
41661;SDS011;27351;45.992;12.666;2024-02-21T00:06:58;6.32;;;3.03;;
41661;SDS011;27351;45.992;12.666;2024-02-21T00:09:24;5.78;;;2.97;;
41661;SDS011;27351;45.992;12.666;2024-02-21T00:11:49;5.23;;;2.77;;
41661;SDS011;27351;45.992;12.666;2024-02-21T00:14:15;6.23;;;2.90;;
41661;SDS011;27351;45.992;12.666;2024-02-21T00:16:41;6.93;;;3.43;;
41661;SDS011;27351;45.992;12.666;2024-02-21T00:19:06;6.73;;;3.03;;
41661;SDS011;27351;45.992;12.666;2024-02-21T00:21:32;6.27;;;3.07;;
41661;SDS011;27351;45.992;12.666;2024-02-21T00:23:58;5.43;;;3.00;;
41661;SDS011;27351;45.992;12.666;2024-02-21T00:26:23;7.17;;;3.77;;
41661;SDS011;27351;45.992;12.666;2024-02-21T00:28:49;6.93;;;3.00;;
41661;SDS011;27351;45.992;12.666;2024-02-21T00:31:14;6.27;;;2.70;;
41661;SDS011;27351;45.992;12.666;2024-02-21T00:33:40;6.75;;;3.03;;
41661;SDS011;27351;45.992;12.666;2024-02-21T00:36:06;7.15;;;3.05;;
41661;SDS011;27351;45.992;12.666;2024-02-21T00:38:32;5.07;;;2.88;;
41661;SDS011;27351;45.992;12.666;2024-02-21T00:40:58;5.97;;;2.88;;
41661;SDS011;27351;45.992;12.666;2024-02-21T00:43:24;4.72;;;2.60;;
41661;SDS011;27351;45.992;12.666;2024-02-21T00:45:50;5.40;;;3.03;;
41661;SDS011;27351;45.992;12.666;2024-02-21T00:48:16;5.77;;;2.97;;
41661;SDS011;27351;45.992;12.666;2024-02-21T00:50:42;7.10;;;3.13;;
41661;SDS011;27351;45.992;12.666;2024-02-21T00:53:08;6.37;;;3.30;;
41661;SDS011;27351;45.992;12.666;2024-02-21T00:55:35;6.20;;;2.95;;
41661;SDS011;27351;45.992;12.666;2024-02-21T00:58:00;5.90;;;2.88;;
41661;SDS011;27351;45.992;12.666;2024-02-21T01:00:26;6.60;;;3.05;;
41661;SDS011;27351;45.992;12.666;2024-02-21T01:02:51;8.23;;;3.63;;
41661;SDS011;27351;45.992;12.666;2024-02-21T01:05:17;7.55;;;3.63;;
41661;SDS011;27351;45.992;12.666;2024-02-21T01:07:43;7.22;;;3.92;;
41661;SDS011;27351;45.992;12.666;2024-02-21T01:10:08;8.68;;;4.05;;
41661;SDS011;27351;45.992;12.666;2024-02-21T01:12:34;8.48;;;3.95;;
41661;SDS011;27351;45.992;12.666;2024-02-21T01:15:00;7.88;;;4.15;;
41661;SDS011;27351;45.992;12.666;2024-02-21T01:17:25;6.80;;;3.37;;
41661;SDS011;27351;45.992;12.666;2024-02-21T01:19:51;7.43;;;3.60;;
41661;SDS011;27351;45.992;12.666;2024-02-21T01:22:17;8.35;;;3.85;;
41661;SDS011;27351;45.992;12.666;2024-02-21T01:24:43;9.27;;;4.00;;
41661;SDS011;27351;45.992;12.666;2024-02-21T01:27:08;7.47;;;3.53;;
41661;SDS011;27351;45.992;12.666;2024-02-21T01:29:35;6.20;;;3.20;;
41661;SDS011;27351;45.992;12.666;2024-02-21T01:32:00;7.13;;;3.85;;
41661;SDS011;27351;45.992;12.666;2024-02-21T01:34:27;7.13;;;3.17;;
41661;SDS011;27351;45.992;12.666;2024-02-21T01:36:53;6.28;;;2.95;;
41661;SDS011;27351;45.992;12.666;2024-02-21T01:39:18;6.22;;;3.40;;
41661;SDS011;27351;45.992;12.666;2024-02-21T01:41:44;6.20;;;2.88;;
41661;SDS011;27351;45.992;12.666;2024-02-21T01:44:09;8.23;;;3.50;;
41661;SDS011;27351;45.992;12.666;2024-02-21T01:46:35;6.50;;;2.93;;
41661;SDS011;27351;45.992;12.666;2024-02-21T01:49:01;5.68;;;2.83;;
41661;SDS011;27351;45.992;12.666;2024-02-21T01:51:27;6.03;;;2.70;;
41661;SDS011;27351;45.992;12.666;2024-02-21T01:53:53;4.67;;;2.50;;
41661;SDS011;27351;45.992;12.666;2024-02-21T01:56:20;5.05;;;2.60;;
41661;SDS011;27351;45.992;12.666;2024-02-21T01:58:46;5.57;;;2.97;;
41661;SDS011;27351;45.992;12.666;2024-02-21T02:01:13;6.47;;;2.67;;
41661;SDS011;27351;45.992;12.666;2024-02-21T02:03:38;5.23;;;2.30;;
41661;SDS011;27351;45.992;12.666;2024-02-21T02:06:05;4.10;;;2.40;;
41661;SDS011;27351;45.992;12.666;2024-02-21T02:08:33;4.30;;;2.20;;
41661;SDS011;27351;45.992;12.666;2024-02-21T02:10:59;4.90;;;2.30;;
41661;SDS011;27351;45.992;12.666;2024-02-21T02:13:25;4.83;;;2.37;;
41661;SDS011;27351;45.992;12.666;2024-02-21T02:15:51;5.73;;;2.37;;
41661;SDS011;27351;45.992;12.666;2024-02-21T02:18:17;5.20;;;2.70;;
41661;SDS011;27351;45.992;12.666;2024-02-21T02:20:43;4.97;;;2.42;;
41661;SDS011;27351;45.992;12.666;2024-02-21T02:23:10;3.60;;;2.10;;
41661;SDS011;27351;45.992;12.666;2024-02-21T02:25:36;5.03;;;2.47;;
41661;SDS011;27351;45.992;12.666;2024-02-21T02:28:03;3.90;;;2.05;;
41661;SDS011;27351;45.992;12.666;2024-02-21T02:30:31;5.05;;;2.53;;
41661;SDS011;27351;45.992;12.666;2024-02-21T02:32:57;5.25;;;2.40;;
41661;SDS011;27351;45.992;12.666;2024-02-21T02:35:22;4.13;;;2.23;;
41661;SDS011;27351;45.992;12.666;2024-02-21T02:37:49;4.37;;;2.10;;
41661;SDS011;27351;45.992;12.666;2024-02-21T02:40:15;4.53;;;2.13;;
41661;SDS011;27351;45.992;12.666;2024-02-21T02:42:41;3.08;;;1.85;;
41661;SDS011;27351;45.992;12.666;2024-02-21T02:45:07;4.13;;;2.20;;
41661;SDS011;27351;45.992;12.666;2024-02-21T02:47:32;3.35;;;1.70;;
41661;SDS011;27351;45.992;12.666;2024-02-21T02:50:00;3.90;;;1.77;;
41661;SDS011;27351;45.992;12.666;2024-02-21T02:52:25;3.72;;;1.83;;
41661;SDS011;27351;45.992;12.666;2024-02-21T02:54:51;4.10;;;2.15;;
41661;SDS011;27351;45.992;12.666;2024-02-21T02:57:18;4.03;;;1.90;;
41661;SDS011;27351;45.992;12.666;2024-02-21T02:59:50;4.13;;;1.80;;
41661;SDS011;27351;45.992;12.666;2024-02-21T03:02:15;3.63;;;1.90;;
41661;SDS011;27351;45.992;12.666;2024-02-21T03:04:41;3.40;;;1.87;;
41661;SDS011;27351;45.992;12.666;2024-02-21T03:07:07;3.43;;;1.70;;
41661;SDS011;27351;45.992;12.666;2024-02-21T03:09:32;2.53;;;1.40;;
41661;SDS011;27351;45.992;12.666;2024-02-21T03:11:58;4.53;;;1.73;;
41661;SDS011;27351;45.992;12.666;2024-02-21T03:14:28;4.10;;;2.03;;
41661;SDS011;27351;45.992;12.666;2024-02-21T03:16:54;3.88;;;1.92;;
41661;SDS011;27351;45.992;12.666;2024-02-21T03:19:20;3.53;;;1.63;;
41661;SDS011;27351;45.992;12.666;2024-02-21T03:21:45;4.83;;;1.80;;
41661;SDS011;27351;45.992;12.666;2024-02-21T03:24:11;3.63;;;1.60;;
41661;SDS011;27351;45.992;12.666;2024-02-21T03:26:36;3.78;;;2.08;;
41661;SDS011;27351;45.992;12.666;2024-02-21T03:29:03;4.05;;;1.75;;
41661;SDS011;27351;45.992;12.666;2024-02-21T03:31:29;4.47;;;2.10;;
41661;SDS011;27351;45.992;12.666;2024-02-21T03:33:54;3.25;;;1.90;;
41661;SDS011;27351;45.992;12.666;2024-02-21T03:36:20;3.50;;;1.60;;
41661;SDS011;27351;45.992;12.666;2024-02-21T03:38:45;4.50;;;1.92;;
41661;SDS011;27351;45.992;12.666;2024-02-21T03:41:11;3.47;;;1.63;;
41661;SDS011;27351;45.992;12.666;2024-02-21T03:43:37;3.53;;;1.77;;
41661;SDS011;27351;45.992;12.666;2024-02-21T03:46:03;4.37;;;1.87;;
41661;SDS011;27351;45.992;12.666;2024-02-21T03:48:29;4.38;;;1.83;;
41661;SDS011;27351;45.992;12.666;2024-02-21T03:50:54;3.27;;;1.50;;
41661;SDS011;27351;45.992;12.666;2024-02-21T03:53:20;4.63;;;1.77;;
41661;SDS011;27351;45.992;12.666;2024-02-21T03:55:45;3.63;;;1.57;;
41661;SDS011;27351;45.992;12.666;2024-02-21T04:00:39;3.95;;;1.80;;
41661;SDS011;27351;45.992;12.666;2024-02-21T04:03:05;3.73;;;1.80;;
41661;SDS011;27351;45.992;12.666;2024-02-21T04:05:31;4.57;;;1.83;;
41661;SDS011;27351;45.992;12.666;2024-02-21T04:07:57;4.17;;;1.97;;
41661;SDS011;27351;45.992;12.666;2024-02-21T04:10:23;2.63;;;1.50;;
41661;SDS011;27351;45.992;12.666;2024-02-21T04:12:48;3.03;;;1.65;;
41661;SDS011;27351;45.992;12.666;2024-02-21T04:15:18;3.72;;;1.80;;
41661;SDS011;27351;45.992;12.666;2024-02-21T04:17:44;3.45;;;2.17;;
41661;SDS011;27351;45.992;12.666;2024-02-21T04:20:14;3.30;;;1.70;;
41661;SDS011;27351;45.992;12.666;2024-02-21T04:22:40;6.28;;;1.85;;
41661;SDS011;27351;45.992;12.666;2024-02-21T04:25:06;4.82;;;1.90;;
41661;SDS011;27351;45.992;12.666;2024-02-21T04:27:31;6.23;;;2.07;;
41661;SDS011;27351;45.992;12.666;2024-02-21T04:29:57;3.37;;;1.77;;
41661;SDS011;27351;45.992;12.666;2024-02-21T04:32:23;4.07;;;1.70;;
41661;SDS011;27351;45.992;12.666;2024-02-21T04:34:48;3.87;;;2.03;;
41661;SDS011;27351;45.992;12.666;2024-02-21T04:37:14;6.18;;;2.55;;
41661;SDS011;27351;45.992;12.666;2024-02-21T04:39:40;4.87;;;2.37;;
41661;SDS011;27351;45.992;12.666;2024-02-21T04:42:05;4.55;;;2.20;;
41661;SDS011;27351;45.992;12.666;2024-02-21T04:44:31;4.60;;;2.27;;
41661;SDS011;27351;45.992;12.666;2024-02-21T04:46:56;4.90;;;1.97;;
41661;SDS011;27351;45.992;12.666;2024-02-21T04:49:22;4.43;;;1.87;;
41661;SDS011;27351;45.992;12.666;2024-02-21T04:51:48;4.27;;;1.70;;
41661;SDS011;27351;45.992;12.666;2024-02-21T04:54:13;4.60;;;1.63;;
41661;SDS011;27351;45.992;12.666;2024-02-21T04:56:39;3.67;;;1.83;;
41661;SDS011;27351;45.992;12.666;2024-02-21T04:59:04;3.03;;;1.60;;
41661;SDS011;27351;45.992;12.666;2024-02-21T05:01:30;3.10;;;1.67;;
41661;SDS011;27351;45.992;12.666;2024-02-21T05:03:56;4.18;;;1.95;;
41661;SDS011;27351;45.992;12.666;2024-02-21T05:06:21;4.55;;;2.28;;
41661;SDS011;27351;45.992;12.666;2024-02-21T05:08:47;3.45;;;2.00;;
41661;SDS011;27351;45.992;12.666;2024-02-21T05:11:13;5.05;;;2.38;;
41661;SDS011;27351;45.992;12.666;2024-02-21T05:13:39;4.03;;;1.90;;
41661;SDS011;27351;45.992;12.666;2024-02-21T05:16:05;3.20;;;1.67;;
41661;SDS011;27351;45.992;12.666;2024-02-21T05:18:30;3.03;;;1.73;;
41661;SDS011;27351;45.992;12.666;2024-02-21T05:20:56;3.77;;;1.90;;
41661;SDS011;27351;45.992;12.666;2024-02-21T05:23:21;4.47;;;1.90;;
41661;SDS011;27351;45.992;12.666;2024-02-21T05:25:47;3.63;;;1.60;;
41661;SDS011;27351;45.992;12.666;2024-02-21T05:28:13;4.43;;;1.80;;
41661;SDS011;27351;45.992;12.666;2024-02-21T05:30:38;6.20;;;2.03;;
41661;SDS011;27351;45.992;12.666;2024-02-21T05:33:04;4.43;;;1.90;;
41661;SDS011;27351;45.992;12.666;2024-02-21T05:35:31;4.17;;;1.73;;
41661;SDS011;27351;45.992;12.666;2024-02-21T05:37:56;3.95;;;1.92;;
41661;SDS011;27351;45.992;12.666;2024-02-21T05:40:22;3.05;;;1.60;;
41661;SDS011;27351;45.992;12.666;2024-02-21T05:42:48;3.38;;;1.85;;
41661;SDS011;27351;45.992;12.666;2024-02-21T05:45:14;5.25;;;1.90;;
41661;SDS011;27351;45.992;12.666;2024-02-21T05:47:41;2.83;;;1.52;;
41661;SDS011;27351;45.992;12.666;2024-02-21T05:50:06;3.95;;;1.63;;
41661;SDS011;27351;45.992;12.666;2024-02-21T05:52:32;5.05;;;1.73;;
41661;SDS011;27351;45.992;12.666;2024-02-21T05:54:57;3.40;;;1.70;;
41661;SDS011;27351;45.992;12.666;2024-02-21T05:57:23;4.00;;;1.52;;
41661;SDS011;27351;45.992;12.666;2024-02-21T05:59:49;3.28;;;1.50;;
41661;SDS011;27351;45.992;12.666;2024-02-21T06:02:14;2.72;;;1.48;;
41661;SDS011;27351;45.992;12.666;2024-02-21T06:04:40;2.78;;;1.58;;
41661;SDS011;27351;45.992;12.666;2024-02-21T06:07:05;3.67;;;1.90;;
41661;SDS011;27351;45.992;12.666;2024-02-21T06:09:31;4.93;;;1.80;;
41661;SDS011;27351;45.992;12.666;2024-02-21T06:11:57;3.60;;;1.60;;
41661;SDS011;27351;45.992;12.666;2024-02-21T06:14:22;5.82;;;2.03;;
41661;SDS011;27351;45.992;12.666;2024-02-21T06:16:48;3.17;;;1.88;;
41661;SDS011;27351;45.992;12.666;2024-02-21T06:19:14;3.45;;;1.63;;
41661;SDS011;27351;45.992;12.666;2024-02-21T06:21:39;4.80;;;2.00;;
41661;SDS011;27351;45.992;12.666;2024-02-21T06:24:05;3.30;;;1.50;;
41661;SDS011;27351;45.992;12.666;2024-02-21T06:26:31;2.93;;;1.70;;
41661;SDS011;27351;45.992;12.666;2024-02-21T06:28:56;3.23;;;1.50;;
41661;SDS011;27351;45.992;12.666;2024-02-21T06:31:22;3.73;;;1.90;;
41661;SDS011;27351;45.992;12.666;2024-02-21T06:33:48;3.03;;;1.50;;
41661;SDS011;27351;45.992;12.666;2024-02-21T06:36:13;4.17;;;2.07;;
41661;SDS011;27351;45.992;12.666;2024-02-21T06:38:39;5.43;;;1.90;;
41661;SDS011;27351;45.992;12.666;2024-02-21T06:41:05;7.10;;;1.90;;
41661;SDS011;27351;45.992;12.666;2024-02-21T06:43:30;5.53;;;2.22;;
41661;SDS011;27351;45.992;12.666;2024-02-21T06:45:56;5.43;;;2.03;;
41661;SDS011;27351;45.992;12.666;2024-02-21T06:48:22;5.20;;;2.10;;
41661;SDS011;27351;45.992;12.666;2024-02-21T06:50:47;6.25;;;2.28;;
41661;SDS011;27351;45.992;12.666;2024-02-21T06:53:13;5.45;;;2.33;;
41661;SDS011;27351;45.992;12.666;2024-02-21T06:55:39;6.57;;;2.10;;
41661;SDS011;27351;45.992;12.666;2024-02-21T06:58:04;6.50;;;1.95;;
41661;SDS011;27351;45.992;12.666;2024-02-21T07:00:30;3.20;;;1.73;;
41661;SDS011;27351;45.992;12.666;2024-02-21T07:02:56;4.38;;;1.95;;
41661;SDS011;27351;45.992;12.666;2024-02-21T07:05:21;4.85;;;1.83;;
41661;SDS011;27351;45.992;12.666;2024-02-21T07:07:47;3.17;;;1.50;;
41661;SDS011;27351;45.992;12.666;2024-02-21T07:10:13;3.10;;;1.80;;
41661;SDS011;27351;45.992;12.666;2024-02-21T07:12:38;5.33;;;2.63;;
41661;SDS011;27351;45.992;12.666;2024-02-21T07:15:07;5.88;;;1.77;;
41661;SDS011;27351;45.992;12.666;2024-02-21T07:17:32;5.18;;;2.00;;
41661;SDS011;27351;45.992;12.666;2024-02-21T07:19:58;3.73;;;1.90;;
41661;SDS011;27351;45.992;12.666;2024-02-21T07:22:24;3.43;;;1.70;;
41661;SDS011;27351;45.992;12.666;2024-02-21T07:24:50;3.33;;;1.75;;
41661;SDS011;27351;45.992;12.666;2024-02-21T07:27:16;4.75;;;2.40;;
41661;SDS011;27351;45.992;12.666;2024-02-21T07:29:41;6.25;;;2.67;;
41661;SDS011;27351;45.992;12.666;2024-02-21T07:32:08;5.13;;;2.38;;
41661;SDS011;27351;45.992;12.666;2024-02-21T07:34:33;5.30;;;2.70;;
41661;SDS011;27351;45.992;12.666;2024-02-21T07:36:59;5.33;;;2.57;;
41661;SDS011;27351;45.992;12.666;2024-02-21T07:39:24;7.97;;;3.20;;
41661;SDS011;27351;45.992;12.666;2024-02-21T07:41:50;6.63;;;3.00;;
41661;SDS011;27351;45.992;12.666;2024-02-21T07:44:16;5.07;;;2.60;;
41661;SDS011;27351;45.992;12.666;2024-02-21T07:46:41;7.50;;;3.40;;
41661;SDS011;27351;45.992;12.666;2024-02-21T07:49:07;8.00;;;3.27;;
41661;SDS011;27351;45.992;12.666;2024-02-21T07:51:33;7.63;;;3.20;;
41661;SDS011;27351;45.992;12.666;2024-02-21T07:53:58;7.93;;;3.40;;
41661;SDS011;27351;45.992;12.666;2024-02-21T07:56:27;7.60;;;3.07;;
41661;SDS011;27351;45.992;12.666;2024-02-21T07:58:53;7.77;;;3.57;;
41661;SDS011;27351;45.992;12.666;2024-02-21T08:01:19;7.80;;;3.60;;
41661;SDS011;27351;45.992;12.666;2024-02-21T08:03:47;7.57;;;3.30;;
41661;SDS011;27351;45.992;12.666;2024-02-21T08:06:13;7.35;;;3.20;;
41661;SDS011;27351;45.992;12.666;2024-02-21T08:08:39;7.18;;;3.17;;
41661;SDS011;27351;45.992;12.666;2024-02-21T08:11:05;8.85;;;3.35;;
41661;SDS011;27351;45.992;12.666;2024-02-21T08:13:30;6.43;;;3.10;;
41661;SDS011;27351;45.992;12.666;2024-02-21T08:15:56;5.47;;;2.60;;
41661;SDS011;27351;45.992;12.666;2024-02-21T08:18:22;6.72;;;3.25;;
41661;SDS011;27351;45.992;12.666;2024-02-21T08:20:48;5.40;;;2.70;;
41661;SDS011;27351;45.992;12.666;2024-02-21T08:23:18;6.00;;;2.80;;
41661;SDS011;27351;45.992;12.666;2024-02-21T08:25:43;6.15;;;2.80;;
41661;SDS011;27351;45.992;12.666;2024-02-21T08:28:09;5.88;;;2.75;;
41661;SDS011;27351;45.992;12.666;2024-02-21T08:30:34;5.97;;;2.80;;
41661;SDS011;27351;45.992;12.666;2024-02-21T08:33:00;7.27;;;3.00;;
41661;SDS011;27351;45.992;12.666;2024-02-21T08:35:26;5.53;;;2.60;;
41661;SDS011;27351;45.992;12.666;2024-02-21T08:37:51;5.17;;;2.50;;
41661;SDS011;27351;45.992;12.666;2024-02-21T08:40:18;4.85;;;2.35;;
41661;SDS011;27351;45.992;12.666;2024-02-21T08:42:46;5.95;;;2.58;;
41661;SDS011;27351;45.992;12.666;2024-02-21T08:45:12;5.78;;;2.42;;
41661;SDS011;27351;45.992;12.666;2024-02-21T08:47:40;5.40;;;2.20;;
41661;SDS011;27351;45.992;12.666;2024-02-21T08:50:06;4.60;;;2.40;;
41661;SDS011;27351;45.992;12.666;2024-02-21T08:52:32;6.38;;;2.13;;
41661;SDS011;27351;45.992;12.666;2024-02-21T08:54:58;5.05;;;2.20;;
41661;SDS011;27351;45.992;12.666;2024-02-21T08:57:24;3.85;;;2.10;;
41661;SDS011;27351;45.992;12.666;2024-02-21T08:59:49;3.80;;;2.00;;
41661;SDS011;27351;45.992;12.666;2024-02-21T09:02:15;4.68;;;2.10;;
41661;SDS011;27351;45.992;12.666;2024-02-21T09:04:41;4.80;;;2.28;;
41661;SDS011;27351;45.992;12.666;2024-02-21T09:07:07;5.43;;;2.50;;
41661;SDS011;27351;45.992;12.666;2024-02-21T09:09:32;4.10;;;1.97;;
41661;SDS011;27351;45.992;12.666;2024-02-21T09:11:58;3.83;;;1.80;;
41661;SDS011;27351;45.992;12.666;2024-02-21T09:14:34;4.07;;;1.80;;
41661;SDS011;27351;45.992;12.666;2024-02-21T09:16:59;4.70;;;1.90;;
41661;SDS011;27351;45.992;12.666;2024-02-21T09:19:25;4.40;;;2.13;;
41661;SDS011;27351;45.992;12.666;2024-02-21T09:21:51;5.32;;;2.45;;
41661;SDS011;27351;45.992;12.666;2024-02-21T09:24:17;5.40;;;2.28;;
41661;SDS011;27351;45.992;12.666;2024-02-21T09:26:43;4.90;;;2.00;;
41661;SDS011;27351;45.992;12.666;2024-02-21T09:29:08;2.60;;;0.90;;
41661;SDS011;27351;45.992;12.666;2024-02-21T09:31:34;1.67;;;0.73;;
41661;SDS011;27351;45.992;12.666;2024-02-21T09:34:00;2.00;;;0.97;;
41661;SDS011;27351;45.992;12.666;2024-02-21T09:36:25;3.90;;;1.30;;
41661;SDS011;27351;45.992;12.666;2024-02-21T09:38:51;2.13;;;1.20;;
41661;SDS011;27351;45.992;12.666;2024-02-21T09:41:17;6.93;;;1.40;;
41661;SDS011;27351;45.992;12.666;2024-02-21T09:43:43;1.70;;;1.00;;
41661;SDS011;27351;45.992;12.666;2024-02-21T09:46:17;2.10;;;1.17;;
41661;SDS011;27351;45.992;12.666;2024-02-21T09:51:10;2.07;;;1.10;;
41661;SDS011;27351;45.992;12.666;2024-02-21T09:53:37;3.43;;;1.00;;
41661;SDS011;27351;45.992;12.666;2024-02-21T09:56:03;2.78;;;1.40;;
41661;SDS011;27351;45.992;12.666;2024-02-21T09:58:29;2.70;;;0.90;;
41661;SDS011;27351;45.992;12.666;2024-02-21T10:00:55;2.07;;;1.03;;
41661;SDS011;27351;45.992;12.666;2024-02-21T10:03:22;1.97;;;1.00;;
41661;SDS011;27351;45.992;12.666;2024-02-21T10:05:48;1.17;;;0.70;;
41661;SDS011;27351;45.992;12.666;2024-02-21T10:08:18;2.22;;;1.00;;
41661;SDS011;27351;45.992;12.666;2024-02-21T10:10:45;1.88;;;0.98;;
41661;SDS011;27351;45.992;12.666;2024-02-21T10:13:21;2.15;;;0.88;;
41661;SDS011;27351;45.992;12.666;2024-02-21T10:15:47;2.20;;;0.73;;
41661;SDS011;27351;45.992;12.666;2024-02-21T10:18:15;1.17;;;0.77;;
41661;SDS011;27351;45.992;12.666;2024-02-21T10:20:43;1.93;;;0.90;;
41661;SDS011;27351;45.992;12.666;2024-02-21T10:23:09;1.50;;;0.80;;
41661;SDS011;27351;45.992;12.666;2024-02-21T10:25:35;1.77;;;0.85;;
41661;SDS011;27351;45.992;12.666;2024-02-21T10:28:02;1.23;;;0.80;;
41661;SDS011;27351;45.992;12.666;2024-02-21T10:30:28;2.03;;;0.95;;
41661;SDS011;27351;45.992;12.666;2024-02-21T10:32:54;1.70;;;0.90;;
41661;SDS011;27351;45.992;12.666;2024-02-21T10:35:29;1.83;;;0.90;;
41661;SDS011;27351;45.992;12.666;2024-02-21T10:38:04;2.80;;;1.20;;
41661;SDS011;27351;45.992;12.666;2024-02-21T10:40:29;2.85;;;0.82;;
41661;SDS011;27351;45.992;12.666;2024-02-21T10:42:59;2.22;;;0.90;;
41661;SDS011;27351;45.992;12.666;2024-02-21T10:45:29;2.10;;;0.82;;
41661;SDS011;27351;45.992;12.666;2024-02-21T10:47:56;1.65;;;0.80;;
41661;SDS011;27351;45.992;12.666;2024-02-21T10:50:26;2.42;;;1.00;;
41661;SDS011;27351;45.992;12.666;2024-02-21T10:55:34;1.50;;;1.10;;
41661;SDS011;27351;45.992;12.666;2024-02-21T10:58:04;3.05;;;1.08;;
41661;SDS011;27351;45.992;12.666;2024-02-21T11:00:30;1.42;;;0.98;;
41661;SDS011;27351;45.992;12.666;2024-02-21T11:02:56;2.33;;;1.35;;
41661;SDS011;27351;45.992;12.666;2024-02-21T11:05:23;2.13;;;1.00;;
41661;SDS011;27351;45.992;12.666;2024-02-21T11:07:49;2.47;;;1.10;;
41661;SDS011;27351;45.992;12.666;2024-02-21T11:10:24;3.60;;;1.30;;
41661;SDS011;27351;45.992;12.666;2024-02-21T11:13:04;3.60;;;1.30;;
41661;SDS011;27351;45.992;12.666;2024-02-21T11:15:30;3.80;;;1.75;;
41661;SDS011;27351;45.992;12.666;2024-02-21T11:17:56;4.07;;;1.58;;
41661;SDS011;27351;45.992;12.666;2024-02-21T11:20:31;2.90;;;1.45;;
41661;SDS011;27351;45.992;12.666;2024-02-21T11:22:57;3.70;;;1.80;;
41661;SDS011;27351;45.992;12.666;2024-02-21T11:25:23;3.22;;;1.33;;
41661;SDS011;27351;45.992;12.666;2024-02-21T11:27:48;3.70;;;1.42;;
41661;SDS011;27351;45.992;12.666;2024-02-21T11:30:14;5.07;;;1.73;;
41661;SDS011;27351;45.992;12.666;2024-02-21T11:32:41;1.88;;;1.00;;
41661;SDS011;27351;45.992;12.666;2024-02-21T11:35:07;3.33;;;1.50;;
41661;SDS011;27351;45.992;12.666;2024-02-21T11:37:33;3.50;;;1.55;;
41661;SDS011;27351;45.992;12.666;2024-02-21T11:39:59;2.27;;;1.20;;
41661;SDS011;27351;45.992;12.666;2024-02-21T11:42:28;2.55;;;1.40;;
41661;SDS011;27351;45.992;12.666;2024-02-21T11:44:55;2.73;;;1.20;;
41661;SDS011;27351;45.992;12.666;2024-02-21T11:47:23;3.20;;;1.40;;
41661;SDS011;27351;45.992;12.666;2024-02-21T11:49:49;4.55;;;1.30;;
41661;SDS011;27351;45.992;12.666;2024-02-21T11:52:21;3.10;;;1.50;;
41661;SDS011;27351;45.992;12.666;2024-02-21T11:54:47;3.90;;;1.40;;
41661;SDS011;27351;45.992;12.666;2024-02-21T11:57:13;3.77;;;1.20;;
41661;SDS011;27351;45.992;12.666;2024-02-21T11:59:39;2.83;;;1.27;;
41661;SDS011;27351;45.992;12.666;2024-02-21T12:02:05;2.40;;;0.98;;
41661;SDS011;27351;45.992;12.666;2024-02-21T12:04:31;3.28;;;1.33;;
41661;SDS011;27351;45.992;12.666;2024-02-21T12:06:57;3.17;;;1.40;;
41661;SDS011;27351;45.992;12.666;2024-02-21T12:09:24;2.33;;;1.15;;
41661;SDS011;27351;45.992;12.666;2024-02-21T12:14:24;1.90;;;1.33;;
41661;SDS011;27351;45.992;12.666;2024-02-21T12:16:50;3.10;;;1.25;;
41661;SDS011;27351;45.992;12.666;2024-02-21T12:19:16;2.83;;;1.27;;
41661;SDS011;27351;45.992;12.666;2024-02-21T12:21:42;3.70;;;1.73;;
41661;SDS011;27351;45.992;12.666;2024-02-21T12:24:24;3.83;;;1.97;;
41661;SDS011;27351;45.992;12.666;2024-02-21T12:26:50;3.78;;;1.67;;
41661;SDS011;27351;45.992;12.666;2024-02-21T12:29:15;3.80;;;1.70;;
41661;SDS011;27351;45.992;12.666;2024-02-21T12:31:41;2.97;;;1.20;;
41661;SDS011;27351;45.992;12.666;2024-02-21T12:34:07;3.00;;;1.40;;
41661;SDS011;27351;45.992;12.666;2024-02-21T12:36:36;4.57;;;1.88;;
41661;SDS011;27351;45.992;12.666;2024-02-21T12:39:02;3.13;;;1.40;;
41661;SDS011;27351;45.992;12.666;2024-02-21T12:41:30;4.43;;;1.70;;
41661;SDS011;27351;45.992;12.666;2024-02-21T12:43:57;5.40;;;1.93;;
41661;SDS011;27351;45.992;12.666;2024-02-21T12:46:23;4.30;;;2.27;;
41661;SDS011;27351;45.992;12.666;2024-02-21T12:48:49;3.47;;;1.80;;
41661;SDS011;27351;45.992;12.666;2024-02-21T12:51:15;3.85;;;1.70;;
41661;SDS011;27351;45.992;12.666;2024-02-21T12:53:41;5.82;;;2.28;;
41661;SDS011;27351;45.992;12.666;2024-02-21T12:56:06;4.88;;;1.77;;
41661;SDS011;27351;45.992;12.666;2024-02-21T12:58:33;4.47;;;1.88;;
41661;SDS011;27351;45.992;12.666;2024-02-21T13:00:58;6.30;;;1.90;;
41661;SDS011;27351;45.992;12.666;2024-02-21T13:03:24;4.32;;;1.80;;
41661;SDS011;27351;45.992;12.666;2024-02-21T13:05:51;4.53;;;2.35;;
41661;SDS011;27351;45.992;12.666;2024-02-21T13:08:16;5.40;;;2.38;;
41661;SDS011;27351;45.992;12.666;2024-02-21T13:10:43;4.78;;;2.50;;
41661;SDS011;27351;45.992;12.666;2024-02-21T13:13:09;6.88;;;2.90;;
41661;SDS011;27351;45.992;12.666;2024-02-21T13:15:34;5.80;;;2.03;;
41661;SDS011;27351;45.992;12.666;2024-02-21T13:18:00;5.33;;;2.27;;
41661;SDS011;27351;45.992;12.666;2024-02-21T13:20:26;4.20;;;2.00;;
41661;SDS011;27351;45.992;12.666;2024-02-21T13:22:52;5.50;;;1.98;;
41661;SDS011;27351;45.992;12.666;2024-02-21T13:25:18;5.32;;;2.20;;
41661;SDS011;27351;45.992;12.666;2024-02-21T13:27:46;5.03;;;2.35;;
41661;SDS011;27351;45.992;12.666;2024-02-21T13:30:12;5.30;;;2.50;;
41661;SDS011;27351;45.992;12.666;2024-02-21T13:32:41;6.30;;;2.25;;
41661;SDS011;27351;45.992;12.666;2024-02-21T13:35:08;6.82;;;2.20;;
41661;SDS011;27351;45.992;12.666;2024-02-21T13:37:34;6.47;;;2.45;;
41661;SDS011;27351;45.992;12.666;2024-02-21T13:40:00;6.20;;;2.30;;
41661;SDS011;27351;45.992;12.666;2024-02-21T13:42:25;6.13;;;2.55;;
41661;SDS011;27351;45.992;12.666;2024-02-21T13:44:53;5.70;;;2.83;;
41661;SDS011;27351;45.992;12.666;2024-02-21T13:47:18;5.77;;;2.30;;
41661;SDS011;27351;45.992;12.666;2024-02-21T13:49:46;4.75;;;2.30;;
41661;SDS011;27351;45.992;12.666;2024-02-21T13:52:13;6.15;;;2.72;;
41661;SDS011;27351;45.992;12.666;2024-02-21T13:54:38;5.80;;;2.55;;
41661;SDS011;27351;45.992;12.666;2024-02-21T13:57:04;4.57;;;2.30;;
41661;SDS011;27351;45.992;12.666;2024-02-21T13:59:30;7.47;;;2.40;;
41661;SDS011;27351;45.992;12.666;2024-02-21T14:01:55;5.43;;;2.17;;
41661;SDS011;27351;45.992;12.666;2024-02-21T14:04:21;5.73;;;2.50;;
41661;SDS011;27351;45.992;12.666;2024-02-21T14:06:47;5.83;;;2.80;;
41661;SDS011;27351;45.992;12.666;2024-02-21T14:09:13;8.32;;;2.90;;
41661;SDS011;27351;45.992;12.666;2024-02-21T14:11:39;4.22;;;2.45;;
41661;SDS011;27351;45.992;12.666;2024-02-21T14:14:06;5.70;;;2.53;;
41661;SDS011;27351;45.992;12.666;2024-02-21T14:16:32;6.80;;;2.60;;
41661;SDS011;27351;45.992;12.666;2024-02-21T14:18:58;5.72;;;2.40;;
41661;SDS011;27351;45.992;12.666;2024-02-21T14:21:23;7.20;;;2.80;;
41661;SDS011;27351;45.992;12.666;2024-02-21T14:23:49;7.00;;;2.63;;
41661;SDS011;27351;45.992;12.666;2024-02-21T14:26:15;6.13;;;2.75;;
41661;SDS011;27351;45.992;12.666;2024-02-21T14:28:41;8.95;;;3.42;;
41661;SDS011;27351;45.992;12.666;2024-02-21T14:31:07;7.93;;;2.92;;
41661;SDS011;27351;45.992;12.666;2024-02-21T14:33:34;6.50;;;2.70;;
41661;SDS011;27351;45.992;12.666;2024-02-21T14:36:00;6.28;;;3.00;;
41661;SDS011;27351;45.992;12.666;2024-02-21T14:38:26;7.30;;;2.80;;